sensor_id;sensor_type;location;lat;lon;timestamp;pressure;altitude;pressure_sealevel;temperature
77728;BMP280;68312;53.502;10.030;2023-06-19T00:00:53;101438.13;;;19.19
77728;BMP280;68312;53.502;10.030;2023-06-19T00:03:18;101445.31;;;19.15
77728;BMP280;68312;53.502;10.030;2023-06-19T00:05:44;101439.97;;;19.15
77728;BMP280;68312;53.502;10.030;2023-06-19T00:08:09;101440.41;;;19.17
77728;BMP280;68312;53.502;10.030;2023-06-19T00:10:35;101436.63;;;19.18
77728;BMP280;68312;53.502;10.030;2023-06-19T00:13:00;101440.41;;;19.17
77728;BMP280;68312;53.502;10.030;2023-06-19T00:15:26;101433.88;;;19.15
77728;BMP280;68312;53.502;10.030;2023-06-19T00:17:51;101435.78;;;19.14
77728;BMP280;68312;53.502;10.030;2023-06-19T00:20:17;101430.09;;;19.16
77728;BMP280;68312;53.502;10.030;2023-06-19T00:22:42;101434.28;;;19.17
77728;BMP280;68312;53.502;10.030;2023-06-19T00:25:08;101425.53;;;19.16
77728;BMP280;68312;53.502;10.030;2023-06-19T00:27:33;101428.94;;;19.13
77728;BMP280;68312;53.502;10.030;2023-06-19T00:29:59;101427.34;;;19.09
77728;BMP280;68312;53.502;10.030;2023-06-19T00:32:24;101424.63;;;19.05
77728;BMP280;68312;53.502;10.030;2023-06-19T00:34:51;101427.34;;;19.09
77728;BMP280;68312;53.502;10.030;2023-06-19T00:37:16;101425.84;;;19.11
77728;BMP280;68312;53.502;10.030;2023-06-19T00:39:43;101413.03;;;19.20
77728;BMP280;68312;53.502;10.030;2023-06-19T00:42:08;101407.88;;;19.30
77728;BMP280;68312;53.502;10.030;2023-06-19T00:44:34;101403.44;;;19.41
77728;BMP280;68312;53.502;10.030;2023-06-19T00:47:01;101402.47;;;19.52
77728;BMP280;68312;53.502;10.030;2023-06-19T00:49:30;101392.31;;;19.61
77728;BMP280;68312;53.502;10.030;2023-06-19T00:51:57;101401.50;;;19.67
77728;BMP280;68312;53.502;10.030;2023-06-19T00:54:22;101404.56;;;19.69
77728;BMP280;68312;53.502;10.030;2023-06-19T00:56:49;101397.25;;;19.63
77728;BMP280;68312;53.502;10.030;2023-06-19T00:59:16;101390.66;;;19.53
77728;BMP280;68312;53.502;10.030;2023-06-19T01:01:45;101386.75;;;19.44
77728;BMP280;68312;53.502;10.030;2023-06-19T01:04:12;101388.97;;;19.39
77728;BMP280;68312;53.502;10.030;2023-06-19T01:09:40;101382.34;;;19.29
77728;BMP280;68312;53.502;10.030;2023-06-19T01:12:20;101381.56;;;19.29
77728;BMP280;68312;53.502;10.030;2023-06-19T01:15:00;101373.31;;;19.37
77728;BMP280;68312;53.502;10.030;2023-06-19T01:17:29;101363.53;;;19.45
77728;BMP280;68312;53.502;10.030;2023-06-19T01:19:57;101362.06;;;19.50
77728;BMP280;68312;53.502;10.030;2023-06-19T01:22:28;101356.84;;;19.57
77728;BMP280;68312;53.502;10.030;2023-06-19T01:24:55;101353.44;;;19.60
77728;BMP280;68312;53.502;10.030;2023-06-19T01:27:22;101352.69;;;19.60
77728;BMP280;68312;53.502;10.030;2023-06-19T01:29:49;101341.97;;;19.56
77728;BMP280;68312;53.502;10.030;2023-06-19T01:32:23;101338.91;;;19.54
77728;BMP280;68312;53.502;10.030;2023-06-19T01:35:04;101345.00;;;19.55
77728;BMP280;68312;53.502;10.030;2023-06-19T01:37:35;101336.31;;;19.61
77728;BMP280;68312;53.502;10.030;2023-06-19T01:40:07;101340.94;;;19.64
77728;BMP280;68312;53.502;10.030;2023-06-19T01:42:37;101337.84;;;19.62
77728;BMP280;68312;53.502;10.030;2023-06-19T01:45:06;101345.00;;;19.55
77728;BMP280;68312;53.502;10.030;2023-06-19T01:47:33;101347.97;;;19.50
77728;BMP280;68312;53.502;10.030;2023-06-19T01:49:59;101347.53;;;19.45
77728;BMP280;68312;53.502;10.030;2023-06-19T01:52:24;101350.91;;;19.42
77728;BMP280;68312;53.502;10.030;2023-06-19T01:54:51;101346.72;;;19.41
77728;BMP280;68312;53.502;10.030;2023-06-19T01:57:16;101347.13;;;19.43
77728;BMP280;68312;53.502;10.030;2023-06-19T01:59:42;101347.22;;;19.50
77728;BMP280;68312;53.502;10.030;2023-06-19T02:02:07;101338.50;;;19.52
77728;BMP280;68312;53.502;10.030;2023-06-19T02:04:33;101329.00;;;19.55
77728;BMP280;68312;53.502;10.030;2023-06-19T02:06:58;101328.22;;;19.54
77728;BMP280;68312;53.502;10.030;2023-06-19T02:09:24;101335.06;;;19.52
77728;BMP280;68312;53.502;10.030;2023-06-19T02:11:50;101332.69;;;19.44
77728;BMP280;68312;53.502;10.030;2023-06-19T02:14:15;101333.78;;;19.39
77728;BMP280;68312;53.502;10.030;2023-06-19T02:16:41;101331.44;;;19.38
77728;BMP280;68312;53.502;10.030;2023-06-19T02:19:06;101326.16;;;19.41
77728;BMP280;68312;53.502;10.030;2023-06-19T02:21:31;101318.94;;;19.42
77728;BMP280;68312;53.502;10.030;2023-06-19T02:23:57;101315.56;;;19.45
77728;BMP280;68312;53.502;10.030;2023-06-19T02:26:23;101326.22;;;19.45
77728;BMP280;68312;53.502;10.030;2023-06-19T02:28:48;101338.34;;;19.39
77728;BMP280;68312;53.502;10.030;2023-06-19T02:31:13;101332.09;;;19.28
77728;BMP280;68312;53.502;10.030;2023-06-19T02:33:39;101335.72;;;19.17
77728;BMP280;68312;53.502;10.030;2023-06-19T02:36:04;101338.25;;;19.06
77728;BMP280;68312;53.502;10.030;2023-06-19T02:38:30;101335.53;;;19.03
77728;BMP280;68312;53.502;10.030;2023-06-19T02:40:55;101334.38;;;19.00
77728;BMP280;68312;53.502;10.030;2023-06-19T02:43:21;101330.47;;;18.95
77728;BMP280;68312;53.502;10.030;2023-06-19T02:45:46;101335.03;;;18.94
77728;BMP280;68312;53.502;10.030;2023-06-19T02:48:12;101330.00;;;18.89
77728;BMP280;68312;53.502;10.030;2023-06-19T02:50:37;101327.28;;;18.86
77728;BMP280;68312;53.502;10.030;2023-06-19T02:53:03;101326.47;;;18.82
77728;BMP280;68312;53.502;10.030;2023-06-19T02:55:28;101319.56;;;18.77
77728;BMP280;68312;53.502;10.030;2023-06-19T02:57:53;101319.50;;;18.74
77728;BMP280;68312;53.502;10.030;2023-06-19T03:00:19;101308.84;;;18.74
77728;BMP280;68312;53.502;10.030;2023-06-19T03:02:44;101312.25;;;18.71
77728;BMP280;68312;53.502;10.030;2023-06-19T03:05:12;101310.69;;;18.70
77728;BMP280;68312;53.502;10.030;2023-06-19T03:07:37;101310.69;;;18.70
77728;BMP280;68312;53.502;10.030;2023-06-19T03:10:03;101303.13;;;18.72
77728;BMP280;68312;53.502;10.030;2023-06-19T03:12:29;101304.34;;;18.78
77728;BMP280;68312;53.502;10.030;2023-06-19T03:14:55;101305.53;;;18.80
77728;BMP280;68312;53.502;10.030;2023-06-19T03:17:20;101310.19;;;18.87
77728;BMP280;68312;53.502;10.030;2023-06-19T03:19:46;101305.28;;;18.89
77728;BMP280;68312;53.502;10.030;2023-06-19T03:22:11;101312.13;;;18.90
77728;BMP280;68312;53.502;10.030;2023-06-19T03:24:37;101313.63;;;18.87
77728;BMP280;68312;53.502;10.030;2023-06-19T03:27:02;101315.94;;;18.89
77728;BMP280;68312;53.502;10.030;2023-06-19T03:29:29;101317.44;;;18.90
77728;BMP280;68312;53.502;10.030;2023-06-19T03:31:54;101312.13;;;18.90
77728;BMP280;68312;53.502;10.030;2023-06-19T03:34:20;101306.78;;;18.90
77728;BMP280;68312;53.502;10.030;2023-06-19T03:36:46;101302.63;;;18.89
77728;BMP280;68312;53.502;10.030;2023-06-19T03:39:12;101296.13;;;18.90
77728;BMP280;68312;53.502;10.030;2023-06-19T03:41:38;101290.13;;;18.93
77728;BMP280;68312;53.502;10.030;2023-06-19T03:44:03;101294.00;;;18.98
77728;BMP280;68312;53.502;10.030;2023-06-19T03:46:29;101291.84;;;19.07
77728;BMP280;68312;53.502;10.030;2023-06-19T03:48:54;101290.81;;;19.15
77728;BMP280;68312;53.502;10.030;2023-06-19T03:51:20;101291.25;;;19.21
77728;BMP280;68312;53.502;10.030;2023-06-19T03:53:45;101295.81;;;19.20
77728;BMP280;68312;53.502;10.030;2023-06-19T03:56:11;101288.97;;;19.19
77728;BMP280;68312;53.502;10.030;2023-06-19T03:58:36;101267.66;;;19.19
77728;BMP280;68312;53.502;10.030;2023-06-19T04:01:02;101270.72;;;19.21
77728;BMP280;68312;53.502;10.030;2023-06-19T04:03:28;101267.75;;;19.26
77728;BMP280;68312;53.502;10.030;2023-06-19T04:05:54;101270.09;;;19.31
77728;BMP280;68312;53.502;10.030;2023-06-19T04:08:19;101267.81;;;19.33
77728;BMP280;68312;53.502;10.030;2023-06-19T04:10:45;101274.31;;;19.32
77728;BMP280;68312;53.502;10.030;2023-06-19T04:13:11;101277.63;;;19.25
77728;BMP280;68312;53.502;10.030;2023-06-19T04:15:37;101285.16;;;19.20
77728;BMP280;68312;53.502;10.030;2023-06-19T04:18:03;101288.16;;;19.15
77728;BMP280;68312;53.502;10.030;2023-06-19T04:20:28;101289.59;;;19.09
77728;BMP280;68312;53.502;10.030;2023-06-19T04:22:54;101284.94;;;19.03
77728;BMP280;68312;53.502;10.030;2023-06-19T04:25:19;101287.66;;;19.06
77728;BMP280;68312;53.502;10.030;2023-06-19T04:27:45;101284.94;;;19.03
77728;BMP280;68312;53.502;10.030;2023-06-19T04:30:11;101285.66;;;19.00
77728;BMP280;68312;53.502;10.030;2023-06-19T04:32:37;101284.53;;;19.01
77728;BMP280;68312;53.502;10.030;2023-06-19T04:35:03;101282.28;;;19.03
77728;BMP280;68312;53.502;10.030;2023-06-19T04:37:28;101287.59;;;19.03
77728;BMP280;68312;53.502;10.030;2023-06-19T04:39:54;101281.97;;;19.08
77728;BMP280;68312;53.502;10.030;2023-06-19T04:42:19;101284.28;;;19.09
77728;BMP280;68312;53.502;10.030;2023-06-19T04:44:46;101272.16;;;19.15
77728;BMP280;68312;53.502;10.030;2023-06-19T04:47:12;101273.84;;;19.26
77728;BMP280;68312;53.502;10.030;2023-06-19T04:49:39;101282.66;;;19.34
77728;BMP280;68312;53.502;10.030;2023-06-19T04:52:05;101262.59;;;19.40
77728;BMP280;68312;53.502;10.030;2023-06-19T04:54:30;101265.69;;;19.45
77728;BMP280;68312;53.502;10.030;2023-06-19T04:56:56;101268.03;;;19.50
77728;BMP280;68312;53.502;10.030;2023-06-19T04:59:22;101278.72;;;19.53
77728;BMP280;68312;53.502;10.030;2023-06-19T05:01:47;101266.88;;;19.48
77728;BMP280;68312;53.502;10.030;2023-06-19T05:04:13;101259.28;;;19.50
77728;BMP280;68312;53.502;10.030;2023-06-19T05:06:38;101260.03;;;19.50
77728;BMP280;68312;53.502;10.030;2023-06-19T05:09:04;101263.03;;;19.45
77728;BMP280;68312;53.502;10.030;2023-06-19T05:11:29;101260.31;;;19.38
77728;BMP280;68312;53.502;10.030;2023-06-19T05:13:56;101275.06;;;19.32
77728;BMP280;68312;53.502;10.030;2023-06-19T05:16:22;101270.88;;;19.31
77728;BMP280;68312;53.502;10.030;2023-06-19T05:18:48;101267.06;;;19.32
77728;BMP280;68312;53.502;10.030;2023-06-19T05:21:13;101268.19;;;19.31
77728;BMP280;68312;53.502;10.030;2023-06-19T05:23:39;101272.75;;;19.31
77728;BMP280;68312;53.502;10.030;2023-06-19T05:26:04;101269.72;;;19.32
77728;BMP280;68312;53.502;10.030;2023-06-19T05:28:30;101278.53;;;19.36
77728;BMP280;68312;53.502;10.030;2023-06-19T05:30:55;101280.47;;;19.39
77728;BMP280;68312;53.502;10.030;2023-06-19T05:33:21;101281.28;;;19.43
77728;BMP280;68312;53.502;10.030;2023-06-19T05:35:46;101280.19;;;19.48
77728;BMP280;68312;53.502;10.030;2023-06-19T05:38:12;101280.25;;;19.54
77728;BMP280;68312;53.502;10.030;2023-06-19T05:40:37;101292.53;;;19.62
77728;BMP280;68312;53.502;10.030;2023-06-19T05:43:03;101307.78;;;19.65
77728;BMP280;68312;53.502;10.030;2023-06-19T05:45:29;101299.47;;;19.70
77728;BMP280;68312;53.502;10.030;2023-06-19T05:47:54;101300.66;;;19.73
77728;BMP280;68312;53.502;10.030;2023-06-19T05:50:20;101302.97;;;19.74
77728;BMP280;68312;53.502;10.030;2023-06-19T05:52:45;101307.47;;;19.70
77728;BMP280;68312;53.502;10.030;2023-06-19T05:55:11;101310.88;;;19.67
77728;BMP280;68312;53.502;10.030;2023-06-19T05:57:36;101303.63;;;19.64
77728;BMP280;68312;53.502;10.030;2023-06-19T06:00:02;101310.06;;;19.63
77728;BMP280;68312;53.502;10.030;2023-06-19T06:02:27;101317.28;;;19.59
77728;BMP280;68312;53.502;10.030;2023-06-19T06:04:53;101326.06;;;19.63
77728;BMP280;68312;53.502;10.030;2023-06-19T06:07:18;101320.72;;;19.63
77728;BMP280;68312;53.502;10.030;2023-06-19T06:09:44;101330.28;;;19.64
77728;BMP280;68312;53.502;10.030;2023-06-19T06:12:09;101328.81;;;19.74
77728;BMP280;68312;53.502;10.030;2023-06-19T06:14:35;101328.94;;;19.80
77728;BMP280;68312;53.502;10.030;2023-06-19T06:17:00;101340.09;;;19.93
77728;BMP280;68312;53.502;10.030;2023-06-19T06:19:26;101341.75;;;20.04
77728;BMP280;68312;53.502;10.030;2023-06-19T06:21:51;101343.00;;;20.13
77728;BMP280;68312;53.502;10.030;2023-06-19T06:24:17;101338.84;;;20.19
77728;BMP280;68312;53.502;10.030;2023-06-19T06:26:42;101334.72;;;20.25
77728;BMP280;68312;53.502;10.030;2023-06-19T06:29:08;101323.28;;;20.28
77728;BMP280;68312;53.502;10.030;2023-06-19T06:31:34;101326.41;;;20.33
77728;BMP280;68312;53.502;10.030;2023-06-19T06:34:03;101327.22;;;20.41
77728;BMP280;68312;53.502;10.030;2023-06-19T06:36:29;101320.81;;;20.49
77728;BMP280;68312;53.502;10.030;2023-06-19T06:38:54;101313.16;;;20.47
77728;BMP280;68312;53.502;10.030;2023-06-19T06:41:20;101313.22;;;20.54
77728;BMP280;68312;53.502;10.030;2023-06-19T06:43:45;101316.63;;;20.48
77728;BMP280;68312;53.502;10.030;2023-06-19T06:46:12;101308.97;;;20.46
77728;BMP280;68312;53.502;10.030;2023-06-19T06:48:37;101308.59;;;20.48
77728;BMP280;68312;53.502;10.030;2023-06-19T06:51:03;101313.94;;;20.51
77728;BMP280;68312;53.502;10.030;2023-06-19T06:53:29;101308.25;;;20.53
77728;BMP280;68312;53.502;10.030;2023-06-19T06:55:55;101304.09;;;20.58
77728;BMP280;68312;53.502;10.030;2023-06-19T06:58:20;101297.63;;;20.59
77728;BMP280;68312;53.502;10.030;2023-06-19T07:00:46;101306.06;;;20.68
77728;BMP280;68312;53.502;10.030;2023-06-19T07:03:11;101309.13;;;20.67
77728;BMP280;68312;53.502;10.030;2023-06-19T07:05:37;101300.72;;;20.68
77728;BMP280;68312;53.502;10.030;2023-06-19T07:08:03;101289.66;;;20.70
77728;BMP280;68312;53.502;10.030;2023-06-19T07:10:28;101294.63;;;20.68
77728;BMP280;68312;53.502;10.030;2023-06-19T07:12:55;101297.28;;;20.68
77728;BMP280;68312;53.502;10.030;2023-06-19T07:15:20;101296.53;;;20.67
77728;BMP280;68312;53.502;10.030;2023-06-19T07:17:46;101306.41;;;20.63
77728;BMP280;68312;53.502;10.030;2023-06-19T07:20:12;101296.84;;;20.59
77728;BMP280;68312;53.502;10.030;2023-06-19T07:22:38;101295.72;;;20.60
77728;BMP280;68312;53.502;10.030;2023-06-19T07:25:05;101301.09;;;20.70
77728;BMP280;68312;53.502;10.030;2023-06-19T07:27:32;101295.06;;;20.73
77728;BMP280;68312;53.502;10.030;2023-06-19T07:29:58;101311.47;;;20.78
77728;BMP280;68312;53.502;10.030;2023-06-19T07:32:24;101316.50;;;20.90
77728;BMP280;68312;53.502;10.030;2023-06-19T07:34:49;101314.25;;;20.96
77728;BMP280;68312;53.502;10.030;2023-06-19T07:37:15;101320.38;;;21.00
77728;BMP280;68312;53.502;10.030;2023-06-19T07:39:40;101310.13;;;21.08
77728;BMP280;68312;53.502;10.030;2023-06-19T07:42:07;101317.81;;;21.24
77728;BMP280;68312;53.502;10.030;2023-06-19T07:44:32;101310.25;;;21.36
77728;BMP280;68312;53.502;10.030;2023-06-19T07:46:58;101322.56;;;21.57
77728;BMP280;68312;53.502;10.030;2023-06-19T07:49:23;101324.13;;;21.72
77728;BMP280;68312;53.502;10.030;2023-06-19T07:51:49;101332.94;;;21.86
77728;BMP280;68312;53.502;10.030;2023-06-19T07:54:14;101328.34;;;21.87
77728;BMP280;68312;53.502;10.030;2023-06-19T07:56:40;101332.56;;;21.95
77728;BMP280;68312;53.502;10.030;2023-06-19T07:59:05;101327.97;;;22.19
77728;BMP280;68312;53.502;10.030;2023-06-19T08:01:31;101327.47;;;22.93
77728;BMP280;68312;53.502;10.030;2023-06-19T08:03:56;101329.06;;;23.64
77728;BMP280;68312;53.502;10.030;2023-06-19T08:06:22;101315.81;;;24.37
77728;BMP280;68312;53.502;10.030;2023-06-19T08:08:47;101317.06;;;24.95
77728;BMP280;68312;53.502;10.030;2023-06-19T08:11:13;101318.63;;;25.22
77728;BMP280;68312;53.502;10.030;2023-06-19T08:13:38;101308.59;;;25.00
77728;BMP280;68312;53.502;10.030;2023-06-19T08:16:04;101305.53;;;24.98
77728;BMP280;68312;53.502;10.030;2023-06-19T08:18:29;101310.13;;;24.68
77728;BMP280;68312;53.502;10.030;2023-06-19T08:20:55;101310.28;;;24.54
77728;BMP280;68312;53.502;10.030;2023-06-19T08:23:20;101313.47;;;24.39
77728;BMP280;68312;53.502;10.030;2023-06-19T08:25:46;101312.97;;;24.14
77728;BMP280;68312;53.502;10.030;2023-06-19T08:28:11;101322.66;;;24.05
77728;BMP280;68312;53.502;10.030;2023-06-19T08:30:37;101310.28;;;24.54
77728;BMP280;68312;53.502;10.030;2023-06-19T08:33:02;101305.63;;;25.20
77728;BMP280;68312;53.502;10.030;2023-06-19T08:35:27;101300.97;;;25.21
77728;BMP280;68312;53.502;10.030;2023-06-19T08:37:53;101304.44;;;25.47
77728;BMP280;68312;53.502;10.030;2023-06-19T08:40:19;101294.66;;;25.82
77728;BMP280;68312;53.502;10.030;2023-06-19T08:42:45;101297.34;;;26.24
77728;BMP280;68312;53.502;10.030;2023-06-19T08:45:10;101309.34;;;26.42
77728;BMP280;68312;53.502;10.030;2023-06-19T08:47:36;101300.28;;;26.90
77728;BMP280;68312;53.502;10.030;2023-06-19T08:50:01;101293.28;;;27.71
77728;BMP280;68312;53.502;10.030;2023-06-19T08:52:27;101290.50;;;27.90
77728;BMP280;68312;53.502;10.030;2023-06-19T08:54:52;101289.44;;;28.00
77728;BMP280;68312;53.502;10.030;2023-06-19T08:57:18;101288.44;;;28.10
77728;BMP280;68312;53.502;10.030;2023-06-19T08:59:50;101287.41;;;28.32
77728;BMP280;68312;53.502;10.030;2023-06-19T09:02:16;101289.44;;;28.68
77728;BMP280;68312;53.502;10.030;2023-06-19T09:04:43;101286.28;;;28.69
77728;BMP280;68312;53.502;10.030;2023-06-19T09:07:09;101291.22;;;28.06
77728;BMP280;68312;53.502;10.030;2023-06-19T09:09:37;101280.94;;;27.58
77728;BMP280;68312;53.502;10.030;2023-06-19T09:12:11;101290.28;;;27.53
77728;BMP280;68312;53.502;10.030;2023-06-19T09:14:43;101290.09;;;27.76
77728;BMP280;68312;53.502;10.030;2023-06-19T09:17:17;101289.59;;;27.34
77728;BMP280;68312;53.502;10.030;2023-06-19T09:19:50;101287.72;;;27.15
77728;BMP280;68312;53.502;10.030;2023-06-19T09:22:21;101293.91;;;27.16
77728;BMP280;68312;53.502;10.030;2023-06-19T09:24:48;101287.13;;;27.86
77728;BMP280;68312;53.502;10.030;2023-06-19T09:27:17;101286.38;;;28.41
77728;BMP280;68312;53.502;10.030;2023-06-19T09:29:49;101284.41;;;28.42
77728;BMP280;68312;53.502;10.030;2023-06-19T09:32:16;101286.03;;;28.39
77728;BMP280;68312;53.502;10.030;2023-06-19T09:34:54;101284.94;;;28.37
77728;BMP280;68312;53.502;10.030;2023-06-19T09:37:27;101283.56;;;28.57
77728;BMP280;68312;53.502;10.030;2023-06-19T09:39:59;101283.13;;;28.46
77728;BMP280;68312;53.502;10.030;2023-06-19T09:42:32;101283.69;;;28.26
77728;BMP280;68312;53.502;10.030;2023-06-19T09:45:06;101293.94;;;27.90
77728;BMP280;68312;53.502;10.030;2023-06-19T09:47:39;101294.22;;;27.80
77728;BMP280;68312;53.502;10.030;2023-06-19T09:50:12;101282.34;;;27.62
77728;BMP280;68312;53.502;10.030;2023-06-19T09:52:40;101289.78;;;27.74
77728;BMP280;68312;53.502;10.030;2023-06-19T09:55:10;101289.84;;;28.54
77728;BMP280;68312;53.502;10.030;2023-06-19T09:57:39;101280.97;;;28.41
77728;BMP280;68312;53.502;10.030;2023-06-19T10:00:09;101292.06;;;28.03
77728;BMP280;68312;53.502;10.030;2023-06-19T10:02:35;101289.59;;;27.81
77728;BMP280;68312;53.502;10.030;2023-06-19T10:05:02;101287.19;;;27.98
77728;BMP280;68312;53.502;10.030;2023-06-19T10:07:35;101280.47;;;28.03
77728;BMP280;68312;53.502;10.030;2023-06-19T10:10:08;101279.47;;;27.85
77728;BMP280;68312;53.502;10.030;2023-06-19T10:12:47;101269.28;;;28.04
77728;BMP280;68312;53.502;10.030;2023-06-19T10:15:19;101271.28;;;28.00
77728;BMP280;68312;53.502;10.030;2023-06-19T10:17:50;101274.69;;;28.04
77728;BMP280;68312;53.502;10.030;2023-06-19T10:23:17;101274.13;;;28.37
77728;BMP280;68312;53.502;10.030;2023-06-19T10:31:01;101278.13;;;30.39
77728;BMP280;68312;53.502;10.030;2023-06-19T10:33:33;101268.47;;;31.33
77728;BMP280;68312;53.502;10.030;2023-06-19T10:36:12;101262.06;;;32.06
77728;BMP280;68312;53.502;10.030;2023-06-19T10:38:46;101251.22;;;31.98
77728;BMP280;68312;53.502;10.030;2023-06-19T10:41:19;101269.56;;;31.62
77728;BMP280;68312;53.502;10.030;2023-06-19T10:43:59;101257.94;;;31.44
77728;BMP280;68312;53.502;10.030;2023-06-19T10:46:34;101251.59;;;31.55
77728;BMP280;68312;53.502;10.030;2023-06-19T10:49:02;101265.59;;;31.89
77728;BMP280;68312;53.502;10.030;2023-06-19T10:51:36;101267.53;;;31.98
77728;BMP280;68312;53.502;10.030;2023-06-19T10:54:04;101277.13;;;32.16
77728;BMP280;68312;53.502;10.030;2023-06-19T10:56:30;101269.22;;;32.44
77728;BMP280;68312;53.502;10.030;2023-06-19T10:59:04;101264.44;;;32.22
77728;BMP280;68312;53.502;10.030;2023-06-19T11:01:33;101265.16;;;31.82
77728;BMP280;68312;53.502;10.030;2023-06-19T11:04:19;101261.50;;;31.76
77728;BMP280;68312;53.502;10.030;2023-06-19T11:06:45;101260.53;;;32.05
77728;BMP280;68312;53.502;10.030;2023-06-19T11:09:11;101260.56;;;32.14
77728;BMP280;68312;53.502;10.030;2023-06-19T11:11:42;101255.69;;;32.27
77728;BMP280;68312;53.502;10.030;2023-06-19T11:14:12;101249.53;;;32.49
77728;BMP280;68312;53.502;10.030;2023-06-19T11:16:42;101236.91;;;33.58
77728;BMP280;68312;53.502;10.030;2023-06-19T11:19:15;101238.03;;;33.37
77728;BMP280;68312;53.502;10.030;2023-06-19T11:21:49;101253.88;;;32.15
77728;BMP280;68312;53.502;10.030;2023-06-19T11:24:16;101237.53;;;31.39
77728;BMP280;68312;53.502;10.030;2023-06-19T11:26:45;101247.28;;;31.98
77728;BMP280;68312;53.502;10.030;2023-06-19T11:29:23;101246.53;;;32.39
77728;BMP280;68312;53.502;10.030;2023-06-19T11:31:54;101241.78;;;33.03
77728;BMP280;68312;53.502;10.030;2023-06-19T11:34:35;101243.19;;;33.35
77728;BMP280;68312;53.502;10.030;2023-06-19T11:37:16;101246.19;;;33.00
77728;BMP280;68312;53.502;10.030;2023-06-19T11:39:46;101253.44;;;32.80
77728;BMP280;68312;53.502;10.030;2023-06-19T11:42:13;101240.13;;;32.50
77728;BMP280;68312;53.502;10.030;2023-06-19T11:45:00;101253.22;;;31.27
77728;BMP280;68312;53.502;10.030;2023-06-19T11:47:33;101255.78;;;31.12
77728;BMP280;68312;53.502;10.030;2023-06-19T11:49:59;101244.28;;;31.08
77728;BMP280;68312;53.502;10.030;2023-06-19T11:52:26;101251.38;;;30.59
77728;BMP280;68312;53.502;10.030;2023-06-19T11:54:51;101247.22;;;30.37
77728;BMP280;68312;53.502;10.030;2023-06-19T11:57:17;101251.16;;;30.15
77728;BMP280;68312;53.502;10.030;2023-06-19T11:59:42;101255.25;;;29.98
77728;BMP280;68312;53.502;10.030;2023-06-19T12:02:08;101254.50;;;30.48
77728;BMP280;68312;53.502;10.030;2023-06-19T12:04:34;101240.69;;;31.38
77728;BMP280;68312;53.502;10.030;2023-06-19T12:07:01;101243.88;;;32.30
77728;BMP280;68312;53.502;10.030;2023-06-19T12:09:27;101245.34;;;32.40
77728;BMP280;68312;53.502;10.030;2023-06-19T12:11:52;101249.91;;;31.58
77728;BMP280;68312;53.502;10.030;2023-06-19T12:14:18;101248.22;;;30.60
77728;BMP280;68312;53.502;10.030;2023-06-19T12:16:45;101258.81;;;29.53
77728;BMP280;68312;53.502;10.030;2023-06-19T12:19:11;101252.53;;;29.44
77728;BMP280;68312;53.502;10.030;2023-06-19T12:21:37;101252.16;;;29.87
77728;BMP280;68312;53.502;10.030;2023-06-19T12:24:03;101264.94;;;29.99
77728;BMP280;68312;53.502;10.030;2023-06-19T12:26:29;101253.81;;;29.64
77728;BMP280;68312;53.502;10.030;2023-06-19T12:28:55;101263.31;;;29.89
77728;BMP280;68312;53.502;10.030;2023-06-19T12:31:20;101262.66;;;30.27
77728;BMP280;68312;53.502;10.030;2023-06-19T12:33:45;101264.25;;;29.86
77728;BMP280;68312;53.502;10.030;2023-06-19T12:36:11;101264.59;;;29.43
77728;BMP280;68312;53.502;10.030;2023-06-19T12:38:36;101264.22;;;30.28
77728;BMP280;68312;53.502;10.030;2023-06-19T12:41:02;101264.84;;;30.80
77728;BMP280;68312;53.502;10.030;2023-06-19T12:43:27;101264.41;;;30.42
77728;BMP280;68312;53.502;10.030;2023-06-19T12:45:53;101261.25;;;30.44
77728;BMP280;68312;53.502;10.030;2023-06-19T12:48:18;101268.63;;;30.43
77728;BMP280;68312;53.502;10.030;2023-06-19T12:50:44;101272.78;;;30.95
77728;BMP280;68312;53.502;10.030;2023-06-19T12:53:09;101279.78;;;30.37
77728;BMP280;68312;53.502;10.030;2023-06-19T12:55:35;101292.69;;;30.63
77728;BMP280;68312;53.502;10.030;2023-06-19T12:58:00;101292.41;;;30.10
77728;BMP280;68312;53.502;10.030;2023-06-19T13:00:25;101285.91;;;29.86
77728;BMP280;68312;53.502;10.030;2023-06-19T13:02:51;101283.97;;;29.41
77728;BMP280;68312;53.502;10.030;2023-06-19T13:05:16;101297.38;;;29.57
77728;BMP280;68312;53.502;10.030;2023-06-19T13:07:42;101290.38;;;29.80
77728;BMP280;68312;53.502;10.030;2023-06-19T13:10:08;101293.28;;;30.07
77728;BMP280;68312;53.502;10.030;2023-06-19T13:12:35;101293.97;;;29.98
77728;BMP280;68312;53.502;10.030;2023-06-19T13:15:00;101283.25;;;29.74
77728;BMP280;68312;53.502;10.030;2023-06-19T13:17:26;101286.41;;;30.15
77728;BMP280;68312;53.502;10.030;2023-06-19T13:19:51;101296.53;;;30.44
77728;BMP280;68312;53.502;10.030;2023-06-19T13:22:17;101301.75;;;31.07
77728;BMP280;68312;53.502;10.030;2023-06-19T13:24:42;101301.75;;;31.07
77728;BMP280;68312;53.502;10.030;2023-06-19T13:27:08;101298.50;;;31.21
77728;BMP280;68312;53.502;10.030;2023-06-19T13:29:33;101296.25;;;31.46
77728;BMP280;68312;53.502;10.030;2023-06-19T13:32:00;101303.84;;;30.94
77728;BMP280;68312;53.502;10.030;2023-06-19T13:34:26;101312.84;;;30.11
77728;BMP280;68312;53.502;10.030;2023-06-19T13:36:51;101306.97;;;30.84
77728;BMP280;68312;53.502;10.030;2023-06-19T13:39:17;101305.56;;;31.27
77728;BMP280;68312;53.502;10.030;2023-06-19T13:41:42;101297.59;;;31.50
77728;BMP280;68312;53.502;10.030;2023-06-19T13:44:08;101304.88;;;31.71
77728;BMP280;68312;53.502;10.030;2023-06-19T13:46:33;101299.19;;;32.18
77728;BMP280;68312;53.502;10.030;2023-06-19T13:48:59;101301.97;;;31.65
77728;BMP280;68312;53.502;10.030;2023-06-19T13:51:24;101310.44;;;31.50
77728;BMP280;68312;53.502;10.030;2023-06-19T13:53:51;101310.44;;;31.76